AAL2444 KSTL-KORD
Flight info
| Callsign | AAL2444 |
|---|---|
| Flight time | 0h 48m |
| Altitude | 31000 |
| Route | KSHEE5 LEBOY CASHN TRTLL6 |
| Aircraft | B38M/M-SDE1FGHILORVWXY/HB1 |
Departure
| Time | 2026-05-05 11:45 |
|---|---|
| Airport | St. Louis Lambert International Airport (KSTL) |
Arrival
| Time | 2026-05-05 12:34 |
|---|---|
| Airport | Chicago O'Hare International Airport (KORD) |
| Time | Latitude | Longitude | Altitude | Speed | Heading |
|---|---|---|---|---|---|
| 2026-05-05 11:23 | 38.74234 | -90.36166 | 571 ft | 0 kts | 213° |
| 2026-05-05 11:39 | 38.74235 | -90.36166 | 561 ft | 1 kts | 213° |
| 2026-05-05 11:39 | 38.74256 | -90.36151 | 571 ft | 4 kts | 199° |
| 2026-05-05 11:39 | 38.74281 | -90.36145 | 578 ft | 4 kts | 178° |
| 2026-05-05 11:39 | 38.74306 | -90.36153 | 572 ft | 4 kts | 146° |
| 2026-05-05 11:40 | 38.74316 | -90.36165 | 571 ft | 0 kts | 123° |
| 2026-05-05 11:41 | 38.74316 | -90.36163 | 571 ft | 2 kts | 123° |
| 2026-05-05 11:42 | 38.74270 | -90.36069 | 575 ft | 18 kts | 122° |
| 2026-05-05 11:42 | 38.74198 | -90.35919 | 575 ft | 24 kts | 122° |
| 2026-05-05 11:42 | 38.74101 | -90.35725 | 580 ft | 27 kts | 123° |
| 2026-05-05 11:42 | 38.73997 | -90.35521 | 581 ft | 27 kts | 123° |
| 2026-05-05 11:43 | 38.73896 | -90.35315 | 585 ft | 27 kts | 122° |
| 2026-05-05 11:43 | 38.73801 | -90.35127 | 592 ft | 22 kts | 122° |
| 2026-05-05 11:43 | 38.73806 | -90.35054 | 594 ft | 5 kts | 43° |
| 2026-05-05 11:43 | 38.73852 | -90.35014 | 595 ft | 0 kts | 33° |
| 2026-05-05 11:44 | 38.73855 | -90.35011 | 595 ft | 4 kts | 33° |
| 2026-05-05 11:44 | 38.73939 | -90.34985 | 594 ft | 16 kts | 328° |
| 2026-05-05 11:44 | 38.74044 | -90.35183 | 587 ft | 63 kts | 302° |
| 2026-05-05 11:45 | 38.74448 | -90.36003 | 577 ft | 152 kts | 301° |
| 2026-05-05 11:45 | 38.75164 | -90.37376 | 766 ft | 214 kts | 307° |
| 2026-05-05 11:45 | 38.76135 | -90.39119 | 1402 ft | 258 kts | 313° |
| 2026-05-05 11:45 | 38.77561 | -90.40260 | 3211 ft | 241 kts | 347° |
| 2026-05-05 11:46 | 38.79235 | -90.40717 | 4357 ft | 253 kts | 347° |
| 2026-05-05 11:46 | 38.80999 | -90.41198 | 5410 ft | 266 kts | 345° |
| 2026-05-05 11:46 | 38.82819 | -90.41658 | 6496 ft | 274 kts | 345° |
| 2026-05-05 11:46 | 38.84716 | -90.42141 | 7584 ft | 281 kts | 344° |
| 2026-05-05 11:47 | 38.86650 | -90.42638 | 8719 ft | 286 kts | 343° |
| 2026-05-05 11:47 | 38.88630 | -90.43145 | 9797 ft | 293 kts | 343° |
| 2026-05-05 11:47 | 38.90663 | -90.43667 | 10686 ft | 305 kts | 343° |
| 2026-05-05 11:47 | 38.92799 | -90.44215 | 11403 ft | 320 kts | 343° |
| 2026-05-05 11:48 | 38.97308 | -90.45374 | 13208 ft | 335 kts | 343° |
| 2026-05-05 11:48 | 38.99603 | -90.45964 | 14171 ft | 339 kts | 343° |
| 2026-05-05 11:48 | 39.01925 | -90.46562 | 15030 ft | 342 kts | 343° |
| 2026-05-05 11:49 | 39.04275 | -90.47169 | 15892 ft | 346 kts | 343° |
| 2026-05-05 11:49 | 39.06652 | -90.47782 | 16721 ft | 350 kts | 343° |
| 2026-05-05 11:49 | 39.09050 | -90.48402 | 17551 ft | 354 kts | 343° |
| 2026-05-05 11:49 | 39.11473 | -90.49028 | 18336 ft | 357 kts | 343° |
| 2026-05-05 11:50 | 39.13932 | -90.49665 | 19025 ft | 361 kts | 343° |
| 2026-05-05 11:50 | 39.16413 | -90.50307 | 19683 ft | 366 kts | 342° |
| 2026-05-05 11:50 | 39.18922 | -90.50957 | 20336 ft | 370 kts | 342° |
| 2026-05-05 11:50 | 39.21455 | -90.51613 | 20996 ft | 373 kts | 342° |
| 2026-05-05 11:51 | 39.24022 | -90.52279 | 21643 ft | 377 kts | 342° |
| 2026-05-05 11:51 | 39.26609 | -90.52951 | 22281 ft | 381 kts | 342° |
| 2026-05-05 11:51 | 39.29189 | -90.53620 | 22898 ft | 385 kts | 342° |
| 2026-05-05 11:51 | 39.31832 | -90.54308 | 23495 ft | 390 kts | 341° |
| 2026-05-05 11:52 | 39.34504 | -90.55004 | 24013 ft | 393 kts | 341° |
| 2026-05-05 11:52 | 39.37206 | -90.55708 | 24519 ft | 397 kts | 341° |
| 2026-05-05 11:52 | 39.39926 | -90.56415 | 25011 ft | 401 kts | 341° |
| 2026-05-05 11:52 | 39.42762 | -90.56678 | 25521 ft | 419 kts | 357° |
| 2026-05-05 11:53 | 39.45663 | -90.55845 | 26055 ft | 437 kts | 14° |
| 2026-05-05 11:53 | 39.48472 | -90.54220 | 26516 ft | 445 kts | 17° |
| 2026-05-05 11:53 | 39.51311 | -90.52565 | 26924 ft | 450 kts | 17° |
| 2026-05-05 11:53 | 39.54173 | -90.50880 | 27370 ft | 454 kts | 17° |
| 2026-05-05 11:54 | 39.57068 | -90.49163 | 27799 ft | 459 kts | 17° |
| 2026-05-05 11:54 | 39.59986 | -90.47429 | 28202 ft | 463 kts | 17° |
| 2026-05-05 11:54 | 39.62938 | -90.45672 | 28611 ft | 468 kts | 17° |
| 2026-05-05 11:54 | 39.65911 | -90.43901 | 29011 ft | 472 kts | 17° |
| 2026-05-05 11:55 | 39.68872 | -90.42135 | 29404 ft | 476 kts | 17° |
| 2026-05-05 11:55 | 39.71896 | -90.40330 | 29801 ft | 480 kts | 17° |
| 2026-05-05 11:55 | 39.74944 | -90.38509 | 30176 ft | 484 kts | 16° |
| 2026-05-05 11:55 | 39.78015 | -90.36673 | 30597 ft | 485 kts | 16° |
| 2026-05-05 11:56 | 39.81091 | -90.34831 | 30875 ft | 488 kts | 15° |
| 2026-05-05 11:56 | 39.84180 | -90.32979 | 30919 ft | 487 kts | 15° |
| 2026-05-05 11:56 | 39.90312 | -90.29298 | 30899 ft | 485 kts | 15° |
| 2026-05-05 11:57 | 39.96348 | -90.25308 | 30874 ft | 497 kts | 29° |
| 2026-05-05 11:57 | 40.01683 | -90.19416 | 30885 ft | 503 kts | 33° |
| 2026-05-05 11:58 | 40.06970 | -90.13513 | 30890 ft | 503 kts | 34° |
| 2026-05-05 11:58 | 40.12279 | -90.07539 | 30890 ft | 503 kts | 34° |
| 2026-05-05 11:59 | 40.17575 | -90.01566 | 30887 ft | 503 kts | 34° |
| 2026-05-05 11:59 | 40.22873 | -89.95579 | 30882 ft | 503 kts | 34° |
| 2026-05-05 12:00 | 40.28174 | -89.89574 | 30880 ft | 504 kts | 34° |
| 2026-05-05 12:00 | 40.33473 | -89.83559 | 30879 ft | 504 kts | 34° |
| 2026-05-05 12:01 | 40.38777 | -89.77525 | 30892 ft | 505 kts | 34° |
| 2026-05-05 12:01 | 40.44087 | -89.71471 | 30906 ft | 505 kts | 34° |
| 2026-05-05 12:02 | 40.49397 | -89.65404 | 30919 ft | 506 kts | 34° |
| 2026-05-05 12:02 | 40.54642 | -89.59395 | 30777 ft | 490 kts | 33° |
| 2026-05-05 12:03 | 40.57176 | -89.56490 | 30298 ft | 488 kts | 34° |
| 2026-05-05 12:03 | 40.59737 | -89.53549 | 29598 ft | 490 kts | 34° |
| 2026-05-05 12:03 | 40.62309 | -89.50593 | 29005 ft | 488 kts | 34° |
| 2026-05-05 12:03 | 40.64860 | -89.47659 | 28530 ft | 483 kts | 34° |
| 2026-05-05 12:04 | 40.67383 | -89.44752 | 28025 ft | 480 kts | 34° |
| 2026-05-05 12:04 | 40.69890 | -89.41863 | 27519 ft | 477 kts | 34° |
| 2026-05-05 12:04 | 40.72377 | -89.38992 | 27018 ft | 473 kts | 34° |
| 2026-05-05 12:04 | 40.74834 | -89.36096 | 26337 ft | 475 kts | 36° |
| 2026-05-05 12:05 | 40.77252 | -89.33208 | 25759 ft | 474 kts | 36° |
| 2026-05-05 12:05 | 40.79693 | -89.30300 | 25210 ft | 472 kts | 36° |
| 2026-05-05 12:05 | 40.82125 | -89.27402 | 24601 ft | 471 kts | 36° |
| 2026-05-05 12:05 | 40.84557 | -89.24502 | 23985 ft | 471 kts | 36° |
| 2026-05-05 12:06 | 40.86986 | -89.21602 | 23382 ft | 470 kts | 37° |
| 2026-05-05 12:06 | 40.89409 | -89.18708 | 22681 ft | 468 kts | 37° |
| 2026-05-05 12:06 | 40.91818 | -89.15826 | 22075 ft | 465 kts | 37° |
| 2026-05-05 12:06 | 40.94208 | -89.12965 | 21478 ft | 462 kts | 37° |
| 2026-05-05 12:07 | 40.96581 | -89.10121 | 20895 ft | 458 kts | 37° |
| 2026-05-05 12:07 | 40.98937 | -89.07295 | 20312 ft | 456 kts | 37° |
| 2026-05-05 12:07 | 41.01282 | -89.04478 | 19726 ft | 453 kts | 37° |
| 2026-05-05 12:07 | 41.03605 | -89.01685 | 19152 ft | 447 kts | 37° |
| 2026-05-05 12:08 | 41.05867 | -88.98962 | 18616 ft | 432 kts | 37° |
| 2026-05-05 12:08 | 41.08036 | -88.96350 | 18071 ft | 420 kts | 37° |
| 2026-05-05 12:08 | 41.10168 | -88.93780 | 17476 ft | 408 kts | 37° |
| 2026-05-05 12:08 | 41.12241 | -88.91279 | 16950 ft | 396 kts | 37° |
| 2026-05-05 12:09 | 41.14252 | -88.88850 | 16450 ft | 386 kts | 37° |
| 2026-05-05 12:09 | 41.16210 | -88.86484 | 15962 ft | 376 kts | 37° |
| 2026-05-05 12:09 | 41.18137 | -88.84154 | 15476 ft | 373 kts | 37° |
| 2026-05-05 12:09 | 41.20050 | -88.81839 | 15014 ft | 371 kts | 37° |
| 2026-05-05 12:10 | 41.21955 | -88.79529 | 14584 ft | 370 kts | 37° |
| 2026-05-05 12:10 | 41.23850 | -88.77230 | 14171 ft | 368 kts | 37° |
| 2026-05-05 12:10 | 41.25739 | -88.74937 | 13736 ft | 366 kts | 37° |
| 2026-05-05 12:10 | 41.27613 | -88.72659 | 13232 ft | 364 kts | 37° |
| 2026-05-05 12:11 | 41.29476 | -88.70394 | 12746 ft | 361 kts | 37° |
| 2026-05-05 12:11 | 41.31321 | -88.68149 | 12283 ft | 358 kts | 38° |
| 2026-05-05 12:11 | 41.33150 | -88.65922 | 11844 ft | 355 kts | 38° |
| 2026-05-05 12:11 | 41.34965 | -88.63711 | 11405 ft | 352 kts | 38° |
| 2026-05-05 12:12 | 41.36762 | -88.61522 | 11002 ft | 347 kts | 38° |
| 2026-05-05 12:12 | 41.38545 | -88.59410 | 10857 ft | 344 kts | 38° |
| 2026-05-05 12:12 | 41.40338 | -88.57287 | 10752 ft | 346 kts | 38° |
| 2026-05-05 12:12 | 41.42134 | -88.55155 | 10647 ft | 346 kts | 38° |
| 2026-05-05 12:13 | 41.43928 | -88.53023 | 10531 ft | 345 kts | 38° |
| 2026-05-05 12:13 | 41.45663 | -88.50958 | 10414 ft | 330 kts | 38° |
| 2026-05-05 12:13 | 41.47332 | -88.48972 | 10314 ft | 318 kts | 38° |
| 2026-05-05 12:13 | 41.48979 | -88.47011 | 10191 ft | 316 kts | 38° |
| 2026-05-05 12:14 | 41.50615 | -88.45059 | 10068 ft | 316 kts | 38° |
| 2026-05-05 12:14 | 41.52250 | -88.43109 | 9967 ft | 315 kts | 38° |
| 2026-05-05 12:14 | 41.53884 | -88.41158 | 9855 ft | 314 kts | 38° |
| 2026-05-05 12:14 | 41.55509 | -88.39217 | 9733 ft | 313 kts | 38° |
| 2026-05-05 12:15 | 41.57134 | -88.37274 | 9621 ft | 313 kts | 38° |
| 2026-05-05 12:15 | 41.58207 | -88.35990 | 9546 ft | 312 kts | 38° |
| 2026-05-05 12:15 | 41.59824 | -88.34054 | 9427 ft | 312 kts | 38° |
| 2026-05-05 12:15 | 41.61440 | -88.32120 | 9307 ft | 311 kts | 37° |
| 2026-05-05 12:16 | 41.63056 | -88.30201 | 9174 ft | 310 kts | 37° |
| 2026-05-05 12:16 | 41.64668 | -88.28286 | 9044 ft | 309 kts | 37° |
| 2026-05-05 12:16 | 41.66273 | -88.26377 | 8948 ft | 308 kts | 37° |
| 2026-05-05 12:16 | 41.67874 | -88.24470 | 8836 ft | 308 kts | 37° |
| 2026-05-05 12:17 | 41.69472 | -88.22567 | 8717 ft | 307 kts | 37° |
| 2026-05-05 12:17 | 41.71062 | -88.20671 | 8611 ft | 305 kts | 37° |
| 2026-05-05 12:17 | 41.72645 | -88.18781 | 8506 ft | 304 kts | 37° |
| 2026-05-05 12:17 | 41.74223 | -88.16897 | 8386 ft | 304 kts | 37° |
| 2026-05-05 12:18 | 41.75777 | -88.15041 | 8271 ft | 302 kts | 36° |
| 2026-05-05 12:18 | 41.77349 | -88.13162 | 8185 ft | 302 kts | 36° |
| 2026-05-05 12:18 | 41.78912 | -88.11291 | 8073 ft | 301 kts | 36° |
| 2026-05-05 12:18 | 41.80468 | -88.09414 | 7962 ft | 300 kts | 38° |
| 2026-05-05 12:19 | 41.81957 | -88.07446 | 7836 ft | 300 kts | 39° |
| 2026-05-05 12:19 | 41.83437 | -88.05484 | 7721 ft | 299 kts | 39° |
| 2026-05-05 12:19 | 41.84918 | -88.03528 | 7600 ft | 298 kts | 39° |
| 2026-05-05 12:19 | 41.86396 | -88.01580 | 7500 ft | 297 kts | 38° |
| 2026-05-05 12:20 | 41.87760 | -87.99496 | 7366 ft | 302 kts | 56° |
| 2026-05-05 12:20 | 41.88419 | -87.96819 | 7246 ft | 306 kts | 84° |
| 2026-05-05 12:20 | 41.88444 | -87.93959 | 7167 ft | 307 kts | 90° |
| 2026-05-05 12:20 | 41.88443 | -87.91097 | 7061 ft | 306 kts | 90° |
| 2026-05-05 12:21 | 41.88442 | -87.88274 | 6945 ft | 306 kts | 90° |
| 2026-05-05 12:21 | 41.88440 | -87.85411 | 6839 ft | 307 kts | 90° |
| 2026-05-05 12:21 | 41.88437 | -87.82551 | 6720 ft | 305 kts | 90° |
| 2026-05-05 12:21 | 41.88434 | -87.79715 | 6593 ft | 304 kts | 90° |
| 2026-05-05 12:22 | 41.88431 | -87.76882 | 6469 ft | 302 kts | 89° |
| 2026-05-05 12:22 | 41.88428 | -87.74066 | 6364 ft | 302 kts | 90° |
| 2026-05-05 12:22 | 41.88424 | -87.71248 | 6255 ft | 301 kts | 90° |
| 2026-05-05 12:22 | 41.88421 | -87.68439 | 6138 ft | 300 kts | 90° |
| 2026-05-05 12:23 | 41.88415 | -87.65642 | 6020 ft | 298 kts | 90° |
| 2026-05-05 12:23 | 41.88409 | -87.62869 | 5904 ft | 296 kts | 90° |
| 2026-05-05 12:23 | 41.88403 | -87.60115 | 5798 ft | 294 kts | 89° |
| 2026-05-05 12:23 | 41.88396 | -87.57376 | 5690 ft | 292 kts | 89° |
| 2026-05-05 12:24 | 41.88389 | -87.54693 | 5585 ft | 290 kts | 89° |
| 2026-05-05 12:24 | 41.88381 | -87.51994 | 5473 ft | 289 kts | 89° |
| 2026-05-05 12:24 | 41.88373 | -87.49309 | 5369 ft | 287 kts | 89° |
| 2026-05-05 12:24 | 41.88401 | -87.46640 | 5242 ft | 284 kts | 88° |
| 2026-05-05 12:25 | 41.88474 | -87.44030 | 5125 ft | 274 kts | 80° |
| 2026-05-05 12:25 | 41.89202 | -87.41785 | 4987 ft | 257 kts | 43° |
| 2026-05-05 12:25 | 41.90673 | -87.40588 | 4888 ft | 248 kts | 6° |
| 2026-05-05 12:25 | 41.92373 | -87.40545 | 4810 ft | 245 kts | 346° |
| 2026-05-05 12:26 | 41.93966 | -87.41277 | 4717 ft | 241 kts | 325° |
| 2026-05-05 12:26 | 41.95157 | -87.42791 | 4631 ft | 235 kts | 301° |
| 2026-05-05 12:26 | 41.95709 | -87.44832 | 4544 ft | 234 kts | 277° |
| 2026-05-05 12:26 | 41.95781 | -87.47016 | 4464 ft | 235 kts | 274° |
| 2026-05-05 12:27 | 41.95860 | -87.49194 | 4423 ft | 229 kts | 274° |
| 2026-05-05 12:27 | 41.95936 | -87.51262 | 4428 ft | 214 kts | 274° |
| 2026-05-05 12:27 | 41.96010 | -87.53192 | 4423 ft | 199 kts | 274° |
| 2026-05-05 12:27 | 41.96083 | -87.54988 | 4406 ft | 185 kts | 275° |
| 2026-05-05 12:28 | 41.96157 | -87.56658 | 4399 ft | 183 kts | 275° |
| 2026-05-05 12:28 | 41.96240 | -87.58405 | 4427 ft | 191 kts | 275° |
| 2026-05-05 12:28 | 41.96330 | -87.60208 | 4397 ft | 194 kts | 275° |
| 2026-05-05 12:28 | 41.96472 | -87.62015 | 4320 ft | 194 kts | 277° |
| 2026-05-05 12:29 | 41.96565 | -87.63828 | 4192 ft | 195 kts | 274° |
| 2026-05-05 12:29 | 41.96595 | -87.65657 | 4021 ft | 197 kts | 272° |
| 2026-05-05 12:29 | 41.96598 | -87.67503 | 3729 ft | 198 kts | 272° |
| 2026-05-05 12:29 | 41.96598 | -87.69335 | 3531 ft | 193 kts | 272° |
| 2026-05-05 12:30 | 41.96596 | -87.71107 | 3386 ft | 186 kts | 273° |
| 2026-05-05 12:30 | 41.96595 | -87.72801 | 3174 ft | 176 kts | 274° |
| 2026-05-05 12:30 | 41.96592 | -87.74380 | 2922 ft | 159 kts | 274° |
| 2026-05-05 12:30 | 41.96589 | -87.75770 | 2700 ft | 140 kts | 274° |
| 2026-05-05 12:31 | 41.96587 | -87.77018 | 2531 ft | 128 kts | 276° |
| 2026-05-05 12:31 | 41.96587 | -87.78184 | 2397 ft | 122 kts | 276° |
| 2026-05-05 12:31 | 41.96587 | -87.79317 | 2206 ft | 121 kts | 276° |
| 2026-05-05 12:31 | 41.96586 | -87.80442 | 2038 ft | 120 kts | 276° |
| 2026-05-05 12:32 | 41.96585 | -87.81559 | 1870 ft | 119 kts | 277° |
| 2026-05-05 12:32 | 41.96586 | -87.82678 | 1707 ft | 120 kts | 275° |
| 2026-05-05 12:32 | 41.96583 | -87.83804 | 1506 ft | 121 kts | 275° |
| 2026-05-05 12:32 | 41.96583 | -87.84917 | 1356 ft | 120 kts | 275° |
| 2026-05-05 12:33 | 41.96581 | -87.86047 | 1166 ft | 123 kts | 272° |
| 2026-05-05 12:33 | 41.96579 | -87.87210 | 986 ft | 126 kts | 271° |
| 2026-05-05 12:33 | 41.96576 | -87.88377 | 821 ft | 125 kts | 272° |
| 2026-05-05 12:33 | 41.96575 | -87.89543 | 681 ft | 121 kts | 271° |
| 2026-05-05 12:34 | 41.96578 | -87.90316 | 671 ft | 35 kts | 272° |
| 2026-05-05 12:34 | 41.96577 | -87.90670 | 673 ft | 40 kts | 268° |
| 2026-05-05 12:34 | 41.96575 | -87.91033 | 672 ft | 35 kts | 267° |
| 2026-05-05 12:34 | 41.96592 | -87.91299 | 670 ft | 26 kts | 282° |
| 2026-05-05 12:35 | 41.96644 | -87.91465 | 671 ft | 19 kts | 306° |
| 2026-05-05 12:35 | 41.96730 | -87.91451 | 669 ft | 6 kts | 66° |
| 2026-05-05 12:35 | 41.96739 | -87.91295 | 672 ft | 33 kts | 89° |
| 2026-05-05 12:35 | 41.96742 | -87.91034 | 671 ft | 20 kts | 91° |
| 2026-05-05 12:36 | 41.96738 | -87.90839 | 671 ft | 22 kts | 91° |
| 2026-05-05 12:36 | 41.96735 | -87.90620 | 671 ft | 25 kts | 90° |
| 2026-05-05 12:36 | 41.96740 | -87.90374 | 671 ft | 27 kts | 90° |
| 2026-05-05 12:36 | 41.96752 | -87.90156 | 670 ft | 12 kts | 47° |
| 2026-05-05 12:37 | 41.96842 | -87.90133 | 671 ft | 16 kts | 358° |
| 2026-05-05 12:37 | 41.97014 | -87.90133 | 672 ft | 28 kts | 0° |
| 2026-05-05 12:37 | 41.97196 | -87.90117 | 671 ft | 18 kts | 39° |
| 2026-05-05 12:37 | 41.97206 | -87.89991 | 671 ft | 20 kts | 94° |
| 2026-05-05 12:38 | 41.97246 | -87.89788 | 671 ft | 25 kts | 62° |
| 2026-05-05 12:38 | 41.97336 | -87.89584 | 669 ft | 25 kts | 45° |
| 2026-05-05 12:38 | 41.97493 | -87.89532 | 671 ft | 23 kts | 348° |
| 2026-05-05 12:38 | 41.97581 | -87.89696 | 671 ft | 23 kts | 293° |
| 2026-05-05 12:39 | 41.97625 | -87.89859 | 669 ft | 16 kts | 291° |
| 2026-05-05 12:39 | 41.97663 | -87.89891 | 671 ft | 4 kts | 7° |
| 2026-05-05 12:39 | 41.97687 | -87.89888 | 671 ft | 0 kts | 6° |
| 2026-05-05 12:40 | 41.97685 | -87.89888 | 671 ft | 0 kts | 5° |